createdAt,value
2022-11-22T00:00:31.023Z,9.74
2022-11-22T00:01:31.009Z,9.75
2022-11-22T00:02:31.107Z,9.75
2022-11-22T00:03:30.983Z,9.75
2022-11-22T00:04:30.969Z,9.75
2022-11-22T00:05:30.959Z,9.72
2022-11-22T00:06:30.946Z,9.77
2022-11-22T00:07:30.959Z,9.75
2022-11-22T00:08:30.945Z,9.74
2022-11-22T00:09:31.128Z,9.75
2022-11-22T00:10:30.890Z,9.74
2022-11-22T00:11:30.881Z,9.75
2022-11-22T00:12:30.864Z,9.74
2022-11-22T00:13:30.852Z,9.72
2022-11-22T00:14:30.839Z,9.74
2022-11-22T00:15:30.826Z,9.74
2022-11-22T00:16:30.813Z,9.77
2022-11-22T00:17:30.802Z,9.77
2022-11-22T00:18:30.788Z,9.77
2022-11-22T00:19:31.061Z,9.74
2022-11-22T00:20:30.760Z,9.77
2022-11-22T00:21:30.748Z,9.75
2022-11-22T00:22:30.734Z,9.74
2022-11-22T00:23:30.727Z,9.72
2022-11-22T00:24:30.773Z,9.74
2022-11-22T00:25:30.696Z,9.72
2022-11-22T00:26:30.689Z,9.72
2022-11-22T00:27:30.671Z,9.75
2022-11-22T00:28:30.656Z,9.75
2022-11-22T00:29:30.874Z,9.75
2022-11-22T00:30:30.630Z,9.75
2022-11-22T00:31:30.625Z,9.75
2022-11-22T00:32:30.605Z,9.77
2022-11-22T00:33:30.593Z,9.77
2022-11-22T00:34:30.581Z,9.75
2022-11-22T00:35:30.568Z,9.75
2022-11-22T00:36:30.564Z,9.75
2022-11-22T00:37:30.540Z,9.74
2022-11-22T00:38:30.527Z,9.75
2022-11-22T00:39:30.916Z,9.75
2022-11-22T00:40:30.530Z,9.74
2022-11-22T00:41:30.489Z,9.74
2022-11-22T00:42:30.475Z,9.74
2022-11-22T00:43:30.465Z,9.75
2022-11-22T00:44:30.450Z,9.75
2022-11-22T00:45:30.438Z,9.74
2022-11-22T00:46:30.427Z,9.77
2022-11-22T00:47:30.415Z,9.74
2022-11-22T00:48:30.399Z,9.75
2022-11-22T00:49:30.715Z,9.75
2022-11-22T00:50:30.380Z,9.74
2022-11-22T00:51:30.362Z,9.75
2022-11-22T00:52:30.348Z,9.77
2022-11-22T00:53:30.335Z,9.75
2022-11-22T00:54:30.321Z,9.75
2022-11-22T00:55:30.309Z,9.75
2022-11-22T00:56:30.319Z,9.75
2022-11-22T00:57:30.285Z,9.75
2022-11-22T00:58:30.270Z,9.75
2022-11-22T00:59:30.642Z,9.75
2022-11-22T01:00:30.245Z,9.77
2022-11-22T01:01:30.372Z,9.77
2022-11-22T01:02:30.217Z,9.77
2022-11-22T01:03:30.205Z,9.77
2022-11-22T01:04:30.195Z,9.75
2022-11-22T01:05:30.180Z,9.75
2022-11-22T01:06:30.163Z,9.77
2022-11-22T01:07:30.309Z,9.77
2022-11-22T01:08:30.139Z,9.74
2022-11-22T01:09:30.306Z,9.74
2022-11-22T01:10:30.113Z,9.74
2022-11-22T01:11:30.101Z,9.75
2022-11-22T01:12:30.115Z,9.75
2022-11-22T01:13:30.083Z,9.75
2022-11-22T01:14:30.062Z,9.75
2022-11-22T01:15:30.049Z,9.74
2022-11-22T01:16:30.037Z,9.74
2022-11-22T01:17:30.024Z,9.74
2022-11-22T01:18:30.008Z,9.74
2022-11-22T01:19:30.401Z,9.74
2022-11-22T01:20:29.985Z,9.74
2022-11-22T01:21:29.969Z,9.74
2022-11-22T01:22:29.959Z,9.75
2022-11-22T01:23:29.944Z,9.75
2022-11-22T01:24:29.935Z,9.75
2022-11-22T01:25:29.918Z,9.75
2022-11-22T01:26:29.907Z,9.75
2022-11-22T01:27:29.893Z,9.75
2022-11-22T01:28:29.915Z,9.75
2022-11-22T01:29:30.363Z,9.72
2022-11-22T01:30:29.857Z,9.74
2022-11-22T01:31:29.844Z,9.74
2022-11-22T01:32:29.830Z,9.75
2022-11-22T01:33:29.815Z,9.74
2022-11-22T01:34:29.806Z,9.74
2022-11-22T01:35:29.790Z,9.72
2022-11-22T01:36:29.777Z,9.74
2022-11-22T01:37:29.761Z,9.74
2022-11-22T01:38:29.751Z,9.74
2022-11-22T01:39:30.137Z,9.75
2022-11-22T01:40:29.725Z,9.75
2022-11-22T01:41:29.713Z,9.72
2022-11-22T01:42:29.700Z,9.74
2022-11-22T01:43:29.686Z,9.72
2022-11-22T01:44:29.702Z,9.75
2022-11-22T01:45:29.662Z,9.74
2022-11-22T01:46:29.650Z,9.77
2022-11-22T01:47:29.635Z,9.75
2022-11-22T01:48:29.624Z,9.75
2022-11-22T01:49:29.921Z,9.77
2022-11-22T01:50:29.605Z,9.75
2022-11-22T01:51:29.583Z,9.75
2022-11-22T01:52:29.571Z,9.75
2022-11-22T01:53:29.558Z,9.75
2022-11-22T01:54:29.547Z,9.77
2022-11-22T01:55:29.533Z,9.77
2022-11-22T01:56:29.528Z,9.77
2022-11-22T01:57:29.509Z,9.75
2022-11-22T01:58:29.494Z,9.75
2022-11-22T01:59:29.814Z,9.75
2022-11-22T02:00:29.493Z,9.75
2022-11-22T02:01:29.524Z,9.74
2022-11-22T02:02:29.443Z,9.72
2022-11-22T02:03:29.429Z,9.74
2022-11-22T02:04:29.421Z,9.75
2022-11-22T02:05:29.403Z,9.75
2022-11-22T02:06:29.391Z,9.75
2022-11-22T02:07:29.465Z,9.74
2022-11-22T02:08:29.365Z,9.74
2022-11-22T02:09:29.684Z,9.75
2022-11-22T02:10:35.344Z,9.75
2022-11-22T02:11:33.808Z,9.75
2022-11-22T02:12:29.312Z,9.75
2022-11-22T02:13:29.297Z,9.77
2022-11-22T02:14:29.286Z,9.75
2022-11-22T02:15:29.272Z,9.75
2022-11-22T02:16:29.290Z,9.77
2022-11-22T02:17:29.245Z,9.75
2022-11-22T02:18:29.236Z,9.75
2022-11-22T02:19:29.615Z,9.75
2022-11-22T02:20:29.207Z,9.75
2022-11-22T02:21:29.193Z,9.74
2022-11-22T02:22:29.182Z,9.75
2022-11-22T02:23:29.172Z,9.75
2022-11-22T02:24:29.155Z,9.77
2022-11-22T02:26:44.049Z,9.79
2022-11-22T02:27:38.035Z,9.77
2022-11-22T02:28:38.017Z,9.75
2022-11-22T02:29:38.004Z,9.75
2022-11-22T02:30:37.991Z,9.77
2022-11-22T02:31:38.007Z,9.75
2022-11-22T02:32:37.964Z,9.79
2022-11-22T02:33:37.953Z,9.77
2022-11-22T02:34:37.942Z,9.77
2022-11-22T02:35:37.927Z,9.79
2022-11-22T02:36:37.917Z,9.79
2022-11-22T02:37:37.904Z,9.79
2022-11-22T02:38:37.890Z,9.79
2022-11-22T02:39:37.878Z,9.77
2022-11-22T02:40:37.864Z,9.77
2022-11-22T02:41:37.853Z,9.79
2022-11-22T02:42:37.843Z,9.77
2022-11-22T02:43:37.827Z,9.79
2022-11-22T02:44:37.813Z,9.79
2022-11-22T02:45:37.806Z,9.77
2022-11-22T02:46:37.786Z,9.77
2022-11-22T02:47:37.807Z,9.77
2022-11-22T02:48:37.763Z,9.79
2022-11-22T02:49:37.747Z,9.77
2022-11-22T02:50:37.733Z,9.77
2022-11-22T02:51:37.723Z,9.77
2022-11-22T02:52:37.709Z,9.77
2022-11-22T02:53:37.696Z,9.79
2022-11-22T02:54:37.683Z,9.79
2022-11-22T02:55:37.670Z,9.77
2022-11-22T02:56:37.658Z,9.79
2022-11-22T02:57:37.645Z,9.77
2022-11-22T02:58:37.633Z,9.77
2022-11-22T02:59:37.619Z,9.75
2022-11-22T03:00:37.648Z,9.75
2022-11-22T03:01:37.677Z,9.79
2022-11-22T03:02:37.578Z,9.75
2022-11-22T03:03:37.591Z,9.77
2022-11-22T03:04:37.550Z,9.75
2022-11-22T03:05:37.542Z,9.79
2022-11-22T03:06:37.525Z,9.79
2022-11-22T03:07:37.584Z,9.77
2022-11-22T03:08:37.499Z,9.75
2022-11-22T03:09:37.487Z,9.77
2022-11-22T03:10:37.473Z,9.77
2022-11-22T03:11:37.462Z,9.79
2022-11-22T03:12:37.446Z,9.79
2022-11-22T03:13:37.436Z,9.79
2022-11-22T03:14:37.423Z,9.77
2022-11-22T03:15:37.409Z,9.77
2022-11-22T03:16:37.393Z,9.77
2022-11-22T03:17:37.382Z,9.77
2022-11-22T03:18:37.367Z,9.79
2022-11-22T03:19:37.381Z,9.77
2022-11-22T03:20:37.341Z,9.77
2022-11-22T03:21:37.332Z,9.79
2022-11-22T03:22:37.315Z,9.77
2022-11-22T03:23:37.304Z,9.75
2022-11-22T03:24:37.287Z,9.77
2022-11-22T03:25:37.277Z,9.75
2022-11-22T03:26:37.264Z,9.77
2022-11-22T03:27:37.250Z,9.79
2022-11-22T03:28:37.239Z,9.79
2022-11-22T03:29:37.225Z,9.75
2022-11-22T03:30:37.210Z,9.77
2022-11-22T03:31:37.201Z,9.81
2022-11-22T03:32:37.185Z,9.81
2022-11-22T03:33:37.171Z,9.81
2022-11-22T03:34:37.158Z,9.79
2022-11-22T03:35:37.171Z,9.77
2022-11-22T03:36:37.137Z,9.81
2022-11-22T03:37:37.119Z,9.79
2022-11-22T03:38:37.105Z,9.79
2022-11-22T03:39:37.094Z,9.79
2022-11-22T03:40:37.080Z,9.79
2022-11-22T03:41:37.069Z,9.77
2022-11-22T03:42:37.052Z,9.79
2022-11-22T03:43:37.048Z,9.75
2022-11-22T03:44:37.029Z,9.77
2022-11-22T03:45:37.016Z,9.75
2022-11-22T03:46:43.010Z,9.77
2022-11-22T03:47:36.992Z,9.77
2022-11-22T03:48:36.977Z,9.79
2022-11-22T03:49:36.964Z,9.79
2022-11-22T03:50:36.952Z,9.77
2022-11-22T03:51:36.967Z,9.79
2022-11-22T03:52:36.926Z,9.77
2022-11-22T03:53:36.913Z,9.77
2022-11-22T03:54:36.900Z,9.81
2022-11-22T03:55:36.888Z,9.77
2022-11-22T03:56:36.879Z,9.79
2022-11-22T03:57:36.866Z,9.77
2022-11-22T03:58:36.848Z,9.77
2022-11-22T03:59:36.842Z,9.77
2022-11-22T04:00:36.822Z,9.77
2022-11-22T04:01:36.911Z,9.79
2022-11-22T04:02:36.798Z,9.77
2022-11-22T04:03:36.785Z,9.75
2022-11-22T04:04:36.776Z,9.77
2022-11-22T04:05:36.758Z,9.77
2022-11-22T04:06:36.753Z,9.77
2022-11-22T04:07:36.788Z,9.79
2022-11-22T04:08:36.743Z,9.77
2022-11-22T04:09:36.845Z,9.77
2022-11-22T04:10:36.696Z,9.77
2022-11-22T04:11:36.680Z,9.77
2022-11-22T04:12:36.666Z,9.77
2022-11-22T04:13:36.653Z,9.77
2022-11-22T04:14:36.641Z,9.77
2022-11-22T04:15:36.628Z,9.77
2022-11-22T04:16:36.614Z,9.77
2022-11-22T04:17:36.603Z,9.77
2022-11-22T04:18:36.587Z,9.77
2022-11-22T04:19:36.575Z,9.79
2022-11-22T04:20:36.561Z,9.79
2022-11-22T04:21:36.606Z,9.79
2022-11-22T04:22:36.536Z,9.81
2022-11-22T04:23:36.547Z,9.79
2022-11-22T04:24:36.508Z,9.79
2022-11-22T04:25:36.497Z,9.79
2022-11-22T04:26:36.482Z,9.77
2022-11-22T04:27:36.470Z,9.79
2022-11-22T04:29:01.833Z,9.79
2022-11-22T04:29:37.481Z,9.79
2022-11-22T04:30:36.434Z,9.79
2022-11-22T04:31:36.420Z,9.79
2022-11-22T04:32:36.413Z,9.79
2022-11-22T04:33:36.394Z,9.81
2022-11-22T04:34:36.383Z,9.79
2022-11-22T04:35:36.369Z,9.81
2022-11-22T04:36:36.354Z,9.81
2022-11-22T04:37:36.343Z,9.81
2022-11-22T04:38:36.330Z,9.79
2022-11-22T04:39:36.339Z,9.79
2022-11-22T04:40:36.303Z,9.79
2022-11-22T04:41:36.293Z,9.79
2022-11-22T04:42:36.277Z,9.81
2022-11-22T04:43:36.267Z,9.79
2022-11-22T04:44:36.254Z,9.79
2022-11-22T04:45:36.241Z,9.81
2022-11-22T04:46:36.225Z,9.79
2022-11-22T04:47:36.215Z,9.79
2022-11-22T04:48:36.200Z,9.77
2022-11-22T04:49:36.189Z,9.77
2022-11-22T04:50:36.176Z,9.77
2022-11-22T04:51:36.164Z,9.77
2022-11-22T04:52:36.150Z,9.79
2022-11-22T04:53:36.138Z,9.79
2022-11-22T04:54:36.123Z,9.77
2022-11-22T04:55:36.140Z,9.79
2022-11-22T04:56:36.099Z,9.77
2022-11-22T04:57:36.086Z,9.79
2022-11-22T04:58:36.073Z,9.81
2022-11-22T04:59:36.060Z,9.79
2022-11-22T05:00:36.116Z,9.79
2022-11-22T05:01:36.208Z,9.79
2022-11-22T05:02:36.020Z,9.79
2022-11-22T05:03:36.011Z,9.79
2022-11-22T05:04:35.995Z,9.77
2022-11-22T05:05:35.983Z,9.79
2022-11-22T05:06:35.966Z,9.77
2022-11-22T05:07:36.028Z,9.79
2022-11-22T05:08:35.942Z,9.79
2022-11-22T05:09:35.930Z,9.79
2022-11-22T05:10:35.916Z,9.79
2022-11-22T05:11:35.928Z,9.79
2022-11-22T05:12:35.891Z,9.77
2022-11-22T05:13:35.882Z,9.79
2022-11-22T05:14:35.866Z,9.79
2022-11-22T05:15:35.854Z,9.77
2022-11-22T05:16:35.841Z,9.79
2022-11-22T05:17:35.830Z,9.81
2022-11-22T05:18:35.814Z,9.81
2022-11-22T05:19:35.808Z,9.81
2022-11-22T05:20:35.790Z,9.79
2022-11-22T05:21:35.798Z,9.79
2022-11-22T05:22:35.764Z,9.81
2022-11-22T05:23:35.752Z,9.79
2022-11-22T05:24:35.737Z,9.79
2022-11-22T05:25:35.726Z,9.81
2022-11-22T05:26:35.721Z,9.79
2022-11-22T05:27:35.724Z,9.79
2022-11-22T05:28:35.687Z,9.79
2022-11-22T05:29:35.674Z,9.79
2022-11-22T05:30:35.661Z,9.81
2022-11-22T05:31:35.652Z,9.77
2022-11-22T05:32:35.636Z,9.79
2022-11-22T05:33:35.623Z,9.77
2022-11-22T05:34:35.610Z,9.79
2022-11-22T05:35:35.598Z,9.79
2022-11-22T05:36:35.591Z,9.79
2022-11-22T05:37:35.573Z,9.79
2022-11-22T05:38:35.558Z,9.79
2022-11-22T05:39:35.543Z,9.81
2022-11-22T05:40:35.529Z,9.79
2022-11-22T05:41:35.521Z,9.79
2022-11-22T05:42:35.504Z,9.79
2022-11-22T05:43:35.533Z,9.77
2022-11-22T05:44:35.479Z,9.77
2022-11-22T05:45:35.470Z,9.77
2022-11-22T05:46:35.457Z,9.77
2022-11-22T05:47:35.445Z,9.77
2022-11-22T05:48:35.433Z,9.79
2022-11-22T05:49:35.421Z,9.77
2022-11-22T05:50:35.407Z,9.79
2022-11-22T05:51:35.393Z,9.77
2022-11-22T05:52:35.380Z,9.77
2022-11-22T05:53:35.369Z,9.79
2022-11-22T05:54:35.353Z,9.79
2022-11-22T05:55:35.344Z,9.79
2022-11-22T05:56:35.330Z,9.81
2022-11-22T05:57:35.317Z,9.77
2022-11-22T05:58:35.303Z,9.79
2022-11-22T05:59:37.695Z,9.79
2022-11-22T06:00:35.277Z,9.81
2022-11-22T06:01:35.266Z,9.81
2022-11-22T06:02:35.311Z,9.79
2022-11-22T06:03:35.243Z,9.79
2022-11-22T06:04:35.228Z,9.77
2022-11-22T06:05:35.216Z,9.81
2022-11-22T06:06:35.201Z,9.79
2022-11-22T06:07:35.317Z,9.81
2022-11-22T06:08:35.175Z,9.81
2022-11-22T06:09:35.165Z,9.82
2022-11-22T06:10:35.155Z,9.81
2022-11-22T06:11:35.151Z,9.79
2022-11-22T06:12:35.130Z,9.79
2022-11-22T06:13:35.121Z,9.82
2022-11-22T06:14:39.924Z,9.82
2022-11-22T06:15:36.181Z,9.81
2022-11-22T06:16:35.078Z,9.79
2022-11-22T06:17:35.067Z,9.82
2022-11-22T06:18:35.052Z,9.82
2022-11-22T06:19:35.042Z,9.82
2022-11-22T06:20:35.029Z,9.81
2022-11-22T06:21:35.023Z,9.82
2022-11-22T06:22:35.005Z,9.81
2022-11-22T06:23:34.998Z,9.81
2022-11-22T06:24:34.976Z,9.81
2022-11-22T06:25:34.969Z,9.82
2022-11-22T06:26:39.265Z,9.81
2022-11-22T06:27:34.938Z,9.81
2022-11-22T06:28:34.926Z,9.82
2022-11-22T06:29:34.914Z,9.79
2022-11-22T06:30:34.900Z,9.79
2022-11-22T06:31:34.915Z,9.81
2022-11-22T06:32:34.877Z,9.82
2022-11-22T06:33:34.861Z,9.81
2022-11-22T06:34:34.853Z,9.82
2022-11-22T06:35:34.836Z,9.81
2022-11-22T06:36:34.826Z,9.81
2022-11-22T06:37:34.810Z,9.81
2022-11-22T06:38:34.800Z,9.79
2022-11-22T06:39:34.784Z,9.82
2022-11-22T06:40:34.774Z,9.82
2022-11-22T06:41:34.765Z,9.81
2022-11-22T06:42:34.748Z,9.81
2022-11-22T06:43:34.734Z,9.81
2022-11-22T06:44:34.721Z,9.79
2022-11-22T06:45:34.710Z,9.81
2022-11-22T06:46:34.702Z,9.81
2022-11-22T06:47:34.711Z,9.82
2022-11-22T06:48:34.670Z,9.82
2022-11-22T06:49:34.683Z,9.82
2022-11-22T06:50:34.645Z,9.82
2022-11-22T06:51:34.631Z,9.81
2022-11-22T06:52:34.620Z,9.81
2022-11-22T06:54:35.631Z,9.79
2022-11-22T06:55:50.303Z,9.81
2022-11-22T06:56:34.572Z,9.81
2022-11-22T06:57:34.552Z,9.81
2022-11-22T06:58:34.541Z,9.81
2022-11-22T07:00:05.532Z,9.82
2022-11-22T07:01:05.557Z,9.81
2022-11-22T07:02:06.837Z,9.82
2022-11-22T07:03:05.513Z,9.81
2022-11-22T07:04:05.480Z,9.81
2022-11-22T07:05:26.879Z,9.81
2022-11-22T07:06:06.493Z,9.81
2022-11-22T07:07:05.484Z,9.82
2022-11-22T07:08:12.046Z,9.81
2022-11-22T07:09:06.456Z,9.81
2022-11-22T07:10:05.400Z,9.83
2022-11-22T07:11:05.386Z,9.83
2022-11-22T07:12:05.376Z,9.82
2022-11-22T07:13:05.361Z,9.83
2022-11-22T07:14:08.664Z,9.83
2022-11-22T07:15:05.337Z,9.83
2022-11-22T07:16:05.324Z,9.83
2022-11-22T07:17:05.311Z,9.82
2022-11-22T07:18:05.299Z,9.83
2022-11-22T07:19:05.323Z,9.82
2022-11-22T07:20:05.336Z,9.82
2022-11-22T07:21:10.970Z,9.83
2022-11-22T07:22:06.293Z,9.83
2022-11-22T07:23:05.234Z,9.82
2022-11-22T07:24:05.223Z,9.83
2022-11-22T07:25:05.210Z,9.83
2022-11-22T07:26:05.198Z,9.83
2022-11-22T07:27:05.184Z,9.82
2022-11-22T07:28:05.170Z,9.83
2022-11-22T07:29:05.156Z,9.83
2022-11-22T07:30:05.145Z,9.83
2022-11-22T07:31:05.132Z,9.85
2022-11-22T07:32:05.120Z,9.83
2022-11-22T07:33:05.107Z,9.83
2022-11-22T07:34:05.092Z,9.85
2022-11-22T07:35:05.108Z,9.83
2022-11-22T07:36:05.069Z,9.83
2022-11-22T07:37:09.083Z,9.83
2022-11-22T07:38:05.043Z,9.82
2022-11-22T07:39:05.031Z,9.83
2022-11-22T07:40:05.019Z,9.82
2022-11-22T07:41:05.014Z,9.83
2022-11-22T07:42:04.989Z,9.82
2022-11-22T07:43:04.980Z,9.82
2022-11-22T07:44:04.964Z,9.83
2022-11-22T07:45:04.956Z,9.83
2022-11-22T07:46:04.943Z,9.82
2022-11-22T07:47:04.928Z,9.83
2022-11-22T07:48:04.913Z,9.82
2022-11-22T07:49:04.902Z,9.82
2022-11-22T07:50:04.888Z,9.85
2022-11-22T07:51:04.899Z,9.86
2022-11-22T07:52:04.862Z,9.85
2022-11-22T07:53:04.850Z,9.85
2022-11-22T07:54:04.840Z,9.85
2022-11-22T07:55:07.573Z,9.86
2022-11-22T07:56:05.854Z,9.86
2022-11-22T07:57:04.798Z,9.86
2022-11-22T07:58:04.784Z,9.85
2022-11-22T07:59:04.775Z,9.83
2022-11-22T08:00:04.758Z,9.83
2022-11-22T08:01:04.833Z,9.82
2022-11-22T08:02:04.780Z,9.82
2022-11-22T08:03:04.722Z,9.82
2022-11-22T08:04:04.707Z,9.82
2022-11-22T08:05:04.698Z,9.82
2022-11-22T08:06:04.691Z,9.82
2022-11-22T08:07:04.746Z,9.81
2022-11-22T08:08:04.657Z,9.85
2022-11-22T08:09:04.644Z,9.85
2022-11-22T08:10:04.636Z,9.83
2022-11-22T08:11:04.618Z,9.85
2022-11-22T08:12:04.601Z,9.86
2022-11-22T08:13:04.594Z,9.86
2022-11-22T08:14:04.576Z,9.88
2022-11-22T08:15:04.566Z,9.88
2022-11-22T08:16:05.957Z,9.88
2022-11-22T08:17:04.538Z,9.88
2022-11-22T08:18:04.524Z,9.86
2022-11-22T08:19:04.514Z,9.86
2022-11-22T08:20:04.499Z,9.88
2022-11-22T08:21:04.491Z,9.85
2022-11-22T08:22:04.473Z,9.86
2022-11-22T08:23:04.586Z,9.86
2022-11-22T08:24:04.447Z,9.86
2022-11-22T08:25:04.438Z,9.86
2022-11-22T08:26:04.421Z,9.85
2022-11-22T08:27:04.410Z,9.86
2022-11-22T08:28:04.394Z,9.85
2022-11-22T08:29:04.387Z,9.88
2022-11-22T08:30:04.370Z,9.86
2022-11-22T08:31:04.361Z,9.88
2022-11-22T08:32:04.344Z,9.89
2022-11-22T08:33:04.335Z,9.88
2022-11-22T08:34:04.318Z,9.88
2022-11-22T08:35:04.319Z,9.89
2022-11-22T08:36:04.307Z,9.88
2022-11-22T08:37:04.282Z,9.91
2022-11-22T08:38:04.267Z,9.89
2022-11-22T08:39:04.373Z,9.91
2022-11-22T08:40:04.239Z,9.89
2022-11-22T08:41:04.302Z,9.88
2022-11-22T08:42:04.215Z,9.89
2022-11-22T08:43:04.205Z,9.89
2022-11-22T08:44:04.190Z,9.89
2022-11-22T08:45:04.182Z,9.89
2022-11-22T08:46:04.165Z,9.89
2022-11-22T08:47:04.154Z,9.89
2022-11-22T08:48:04.140Z,9.89
2022-11-22T08:49:04.125Z,9.88
2022-11-22T08:50:04.113Z,9.89
2022-11-22T08:51:04.103Z,9.89
2022-11-22T08:52:04.086Z,9.88
2022-11-22T08:53:04.075Z,9.89
2022-11-22T08:54:04.060Z,9.89
2022-11-22T08:55:04.167Z,9.88
2022-11-22T08:56:04.034Z,9.89
2022-11-22T08:57:04.026Z,9.88
2022-11-22T08:58:04.010Z,9.89
2022-11-22T08:59:04.020Z,9.91
2022-11-22T09:00:03.986Z,9.91
2022-11-22T09:01:04.046Z,9.91
2022-11-22T09:02:04.009Z,9.93
2022-11-22T09:03:03.948Z,9.91
2022-11-22T09:04:03.931Z,9.93
2022-11-22T09:05:03.921Z,9.91
2022-11-22T09:10:04.895Z,9.94
2022-11-22T09:11:03.984Z,9.94
2022-11-22T09:12:03.827Z,9.96
2022-11-22T09:13:03.817Z,9.96
2022-11-22T09:14:03.803Z,9.97
2022-11-22T09:15:03.791Z,9.96
2022-11-22T09:16:03.775Z,9.96
2022-11-22T09:17:03.766Z,9.96
2022-11-22T09:18:03.751Z,9.96
2022-11-22T09:19:03.747Z,9.96
2022-11-22T09:20:03.741Z,9.96
2022-11-22T09:21:03.722Z,9.96
2022-11-22T09:22:03.702Z,9.96
2022-11-22T09:23:03.687Z,9.94
2022-11-22T09:24:03.673Z,9.96
2022-11-22T09:25:03.662Z,9.94
2022-11-22T09:26:03.648Z,9.94
2022-11-22T09:27:03.813Z,9.94
2022-11-22T09:28:03.622Z,9.94
2022-11-22T09:29:03.613Z,9.96
2022-11-22T09:30:03.598Z,9.94
2022-11-22T09:31:03.585Z,9.94
2022-11-22T09:32:03.571Z,9.96
2022-11-22T09:33:03.562Z,9.96
2022-11-22T09:34:03.548Z,9.96
2022-11-22T09:35:03.535Z,9.97
2022-11-22T09:36:03.522Z,9.94
2022-11-22T09:37:03.508Z,9.96
2022-11-22T09:38:03.494Z,9.96
2022-11-22T09:39:03.499Z,9.94
2022-11-22T09:40:03.470Z,9.96
2022-11-22T09:41:03.456Z,9.94
2022-11-22T09:42:03.444Z,9.96
2022-11-22T09:43:03.558Z,9.96
2022-11-22T09:44:03.418Z,9.96
2022-11-22T09:45:03.406Z,9.97
2022-11-22T09:46:03.392Z,9.97
2022-11-22T09:47:03.380Z,9.97
2022-11-22T09:48:09.467Z,9.96
2022-11-22T09:49:04.392Z,9.96
2022-11-22T09:50:03.390Z,9.96
2022-11-22T09:51:03.327Z,9.94
2022-11-22T09:52:03.313Z,9.94
2022-11-22T09:53:03.306Z,9.97
2022-11-22T09:54:03.288Z,9.97
2022-11-22T09:55:03.276Z,9.96
2022-11-22T09:56:03.263Z,9.97
2022-11-22T09:57:03.249Z,9.99
2022-11-22T09:58:03.235Z,9.96
2022-11-22T09:59:03.345Z,9.97
2022-11-22T10:00:03.230Z,9.97
2022-11-22T10:01:03.241Z,9.96
2022-11-22T10:02:16.987Z,9.97
2022-11-22T10:03:05.171Z,9.94
2022-11-22T10:04:03.158Z,9.97
2022-11-22T10:05:03.144Z,9.97
2022-11-22T10:06:03.134Z,9.97
2022-11-22T10:07:03.164Z,9.94
2022-11-22T10:08:03.114Z,9.97
2022-11-22T10:09:03.096Z,9.97
2022-11-22T10:10:38.034Z,9.99
2022-11-22T10:11:38.018Z,9.99
2022-11-22T10:12:38.007Z,9.97
2022-11-22T10:13:37.992Z,9.97
2022-11-22T10:14:38.106Z,9.96
2022-11-22T10:15:37.965Z,9.96
2022-11-22T10:16:37.956Z,9.96
2022-11-22T10:17:37.939Z,9.96
2022-11-22T10:18:37.929Z,9.96
2022-11-22T10:19:43.919Z,9.97
2022-11-22T10:20:37.901Z,9.97
2022-11-22T10:21:37.889Z,9.97
2022-11-22T10:22:37.877Z,9.96
2022-11-22T10:23:37.862Z,9.96
2022-11-22T10:24:37.851Z,9.97
2022-11-22T10:25:37.837Z,9.96
2022-11-22T10:26:37.824Z,9.97
2022-11-22T10:27:37.809Z,9.96
2022-11-22T10:28:37.800Z,9.97
2022-11-22T10:29:37.783Z,9.99
2022-11-22T10:30:37.888Z,9.97
2022-11-22T10:31:37.756Z,9.96
2022-11-22T10:32:37.749Z,9.97
2022-11-22T10:33:42.845Z,9.97
2022-11-22T10:34:38.757Z,9.99
2022-11-22T10:35:37.703Z,9.97
2022-11-22T10:36:37.692Z,9.99
2022-11-22T10:37:37.678Z,9.97
2022-11-22T10:38:43.673Z,9.99
2022-11-22T10:39:38.014Z,10.00
2022-11-22T10:40:37.639Z,9.99
2022-11-22T10:41:37.643Z,9.99
2022-11-22T10:42:37.613Z,9.99
2022-11-22T10:43:37.598Z,9.99
2022-11-22T10:44:37.587Z,9.99
2022-11-22T10:45:37.575Z,9.99
2022-11-22T10:46:37.679Z,9.99
2022-11-22T10:47:37.548Z,10.00
2022-11-22T10:48:37.535Z,10.00
2022-11-22T10:49:37.518Z,10.00
2022-11-22T10:50:37.504Z,10.00
2022-11-22T10:51:37.494Z,10.00
2022-11-22T10:52:37.478Z,9.99
2022-11-22T10:53:37.466Z,9.99
2022-11-22T10:54:37.454Z,9.99
2022-11-22T10:55:37.442Z,9.99
2022-11-22T10:56:37.426Z,10.01
2022-11-22T10:57:37.415Z,10.00
2022-11-22T10:58:37.400Z,10.00
2022-11-22T10:59:37.390Z,10.01
2022-11-22T11:00:37.374Z,10.00
2022-11-22T11:01:37.430Z,10.00
2022-11-22T11:02:37.510Z,10.00
2022-11-22T11:03:37.334Z,10.00
2022-11-22T11:04:37.329Z,10.00
2022-11-22T11:05:37.499Z,10.00
2022-11-22T11:07:04.774Z,10.00
2022-11-22T11:07:38.362Z,10.00
2022-11-22T11:09:02.761Z,10.00
2022-11-22T11:10:38.392Z,10.01
2022-11-22T11:11:37.229Z,10.01
2022-11-22T11:12:37.212Z,10.01
2022-11-22T11:13:37.202Z,10.01
2022-11-22T11:14:37.188Z,10.00
2022-11-22T11:15:37.176Z,10.01
2022-11-22T11:16:37.160Z,10.00
2022-11-22T11:17:37.152Z,10.01
2022-11-22T11:18:37.255Z,10.01
2022-11-22T11:19:37.128Z,10.01
2022-11-22T11:20:37.109Z,10.00
2022-11-22T11:21:43.140Z,10.01
2022-11-22T11:23:12.361Z,10.04
2022-11-22T11:23:39.070Z,10.01
2022-11-22T11:24:37.057Z,10.03
2022-11-22T11:25:37.045Z,10.04
2022-11-22T11:26:37.030Z,10.03
2022-11-22T11:27:37.017Z,10.01
2022-11-22T11:28:37.005Z,10.01
2022-11-22T11:29:38.125Z,10.01
2022-11-22T11:30:36.981Z,10.01
2022-11-22T11:31:36.967Z,10.00
2022-11-22T11:32:36.952Z,10.01
2022-11-22T11:33:36.941Z,10.00
2022-11-22T11:34:37.053Z,10.00
2022-11-22T11:35:36.914Z,9.99
2022-11-22T11:36:36.900Z,10.00
2022-11-22T11:37:36.899Z,9.99
2022-11-22T11:38:36.888Z,10.01
2022-11-22T11:39:40.577Z,10.01
2022-11-22T11:40:37.888Z,10.00
2022-11-22T11:41:42.085Z,10.00
2022-11-22T11:42:37.873Z,10.00
2022-11-22T11:43:36.809Z,10.00
2022-11-22T11:44:36.795Z,10.00
2022-11-22T11:45:36.783Z,10.00
2022-11-22T11:46:36.769Z,10.01
2022-11-22T11:47:36.758Z,10.00
2022-11-22T11:48:36.743Z,10.00
2022-11-22T11:49:36.731Z,10.00
2022-11-22T11:50:36.840Z,10.00
2022-11-22T11:51:36.704Z,9.99
2022-11-22T11:52:36.692Z,10.00
2022-11-22T11:53:36.728Z,10.00
2022-11-22T11:54:36.662Z,10.00
2022-11-22T11:55:36.659Z,10.01
2022-11-22T11:56:36.642Z,10.01
2022-11-22T11:57:36.645Z,10.01
2022-11-22T11:58:36.612Z,10.01
2022-11-22T12:00:11.555Z,10.00
2022-11-22T12:01:11.539Z,10.03
2022-11-22T12:02:11.581Z,10.03
2022-11-22T12:03:11.514Z,10.03
2022-11-22T12:04:11.503Z,10.01
2022-11-22T12:05:11.490Z,10.03
2022-11-22T12:06:11.609Z,10.03
2022-11-22T12:07:11.494Z,10.03
2022-11-22T12:08:11.452Z,10.01
2022-11-22T12:09:11.437Z,10.01
2022-11-22T12:10:11.426Z,10.01
2022-11-22T12:11:11.413Z,10.00
2022-11-22T12:12:11.412Z,10.01
2022-11-22T12:13:11.387Z,10.01
2022-11-22T12:14:19.968Z,10.00
2022-11-22T12:15:12.696Z,10.01
2022-11-22T12:16:11.350Z,10.01
2022-11-22T12:17:11.335Z,10.01
2022-11-22T12:18:11.321Z,10.01
2022-11-22T12:19:11.310Z,10.00
2022-11-22T12:20:11.297Z,10.01
2022-11-22T12:21:11.281Z,10.03
2022-11-22T12:22:19.818Z,10.01
2022-11-22T12:23:12.299Z,10.01
2022-11-22T12:25:31.449Z,10.00
2022-11-22T12:26:12.264Z,10.01
2022-11-22T12:27:11.207Z,10.01
2022-11-22T12:28:11.195Z,10.01
2022-11-22T12:29:11.183Z,10.00
2022-11-22T12:30:11.173Z,10.01
2022-11-22T12:32:12.186Z,10.03
2022-11-22T12:33:11.135Z,10.01
2022-11-22T12:34:11.117Z,10.01
2022-11-22T12:35:11.112Z,10.01
2022-11-22T12:36:11.092Z,10.00
2022-11-22T12:37:11.080Z,10.03
2022-11-22T12:38:11.187Z,10.00
2022-11-22T12:39:11.055Z,10.03
2022-11-22T12:40:11.041Z,10.01
2022-11-22T12:41:11.031Z,10.00
2022-11-22T12:42:11.015Z,10.00
2022-11-22T12:43:11.026Z,10.01
2022-11-22T12:44:10.990Z,10.00
2022-11-22T12:45:10.978Z,10.00
2022-11-22T12:46:10.964Z,10.01
2022-11-22T12:47:10.953Z,10.00
2022-11-22T12:48:10.943Z,10.01
2022-11-22T12:48:23.137Z,10.01
2022-11-22T12:48:23.891Z,10.03
2022-11-22T12:49:10.930Z,10.01
2022-11-22T12:50:10.967Z,10.00
2022-11-22T12:51:10.903Z,10.03
2022-11-22T12:52:10.889Z,10.01
2022-11-22T12:53:10.877Z,10.00
2022-11-22T12:54:10.980Z,10.00
2022-11-22T12:55:10.851Z,10.00
2022-11-22T12:56:10.847Z,10.00
2022-11-22T12:57:10.828Z,10.00
2022-11-22T12:58:10.812Z,10.01
2022-11-22T12:59:10.806Z,10.01
2022-11-22T13:00:10.795Z,10.01
2022-11-22T13:01:10.880Z,10.01
2022-11-22T13:02:10.765Z,10.00
2022-11-22T13:03:10.749Z,10.01
2022-11-22T13:04:10.737Z,10.01
2022-11-22T13:05:10.724Z,10.00
2022-11-22T13:06:10.711Z,10.01
2022-11-22T13:07:10.745Z,10.00
2022-11-22T13:08:10.682Z,10.00
2022-11-22T13:09:10.670Z,9.99
2022-11-22T13:10:10.777Z,10.00
2022-11-22T13:11:10.646Z,9.99
2022-11-22T13:12:10.634Z,10.00
2022-11-22T13:13:10.618Z,9.99
2022-11-22T13:14:10.605Z,9.99
2022-11-22T13:15:10.594Z,9.99
2022-11-22T13:16:10.581Z,9.99
2022-11-22T13:17:10.569Z,9.99
2022-11-22T13:18:10.555Z,10.00
2022-11-22T13:19:10.541Z,10.00
2022-11-22T13:20:10.525Z,10.00
2022-11-22T13:21:10.513Z,9.99
2022-11-22T13:22:10.499Z,9.99